createdAt,value
2023-07-25T00:01:08.911Z,67.42
2023-07-25T00:03:37.095Z,67.23
2023-07-25T00:06:04.957Z,67.86
2023-07-25T00:08:33.482Z,67.69
2023-07-25T00:11:01.541Z,67.69
2023-07-25T00:13:29.421Z,67.63
2023-07-25T00:15:57.068Z,68.01
2023-07-25T00:18:24.664Z,68.50
2023-07-25T00:20:52.259Z,68.29
2023-07-25T00:23:20.355Z,68.71
2023-07-25T00:25:48.048Z,68.53
2023-07-25T00:28:15.735Z,68.75
2023-07-25T00:30:43.360Z,68.58
2023-07-25T00:33:10.972Z,68.29
2023-07-25T00:35:38.797Z,68.60
2023-07-25T00:38:06.610Z,69.01
2023-07-25T00:40:38.940Z,68.93
2023-07-25T00:43:06.685Z,68.82
2023-07-25T00:45:34.873Z,69.00
2023-07-25T00:48:04.154Z,69.48
2023-07-25T00:50:32.226Z,69.57
2023-07-25T00:53:01.292Z,69.74
2023-07-25T00:55:29.865Z,70.02
2023-07-25T00:57:57.582Z,70.17
2023-07-25T01:00:28.877Z,70.01
2023-07-25T01:02:56.752Z,70.40
2023-07-25T01:05:26.789Z,70.17
2023-07-25T01:07:54.619Z,70.80
2023-07-25T01:10:22.256Z,70.96
2023-07-25T01:12:49.921Z,70.66
2023-07-25T01:15:17.661Z,70.82
2023-07-25T01:17:45.482Z,71.08
2023-07-25T01:20:13.504Z,71.27
2023-07-25T01:22:44.833Z,70.76
2023-07-25T01:25:12.591Z,70.55
2023-07-25T01:27:40.181Z,70.77
2023-07-25T01:30:08.518Z,70.94
2023-07-25T01:32:36.287Z,70.92
2023-07-25T01:35:04.442Z,70.94
2023-07-25T01:37:32.063Z,70.90
2023-07-25T01:39:59.984Z,70.92
2023-07-25T01:42:27.827Z,70.67
2023-07-25T01:44:55.481Z,70.78
2023-07-25T01:47:27.282Z,70.88
2023-07-25T01:49:55.600Z,70.69
2023-07-25T01:52:23.263Z,70.94
2023-07-25T01:54:53.147Z,71.32
2023-07-25T01:57:20.907Z,71.57
2023-07-25T01:59:48.926Z,71.67
2023-07-25T02:02:16.574Z,72.10
2023-07-25T02:04:44.244Z,72.41
2023-07-25T02:07:11.829Z,72.41
2023-07-25T02:09:39.439Z,72.26
2023-07-25T02:12:08.716Z,72.42
2023-07-25T02:14:36.329Z,72.37
2023-07-25T02:17:06.695Z,72.68
2023-07-25T02:19:34.432Z,72.74
2023-07-25T02:22:02.030Z,72.79
2023-07-25T02:24:29.923Z,72.76
2023-07-25T02:26:57.655Z,73.06
2023-07-25T02:29:26.024Z,73.23
2023-07-25T02:31:53.571Z,73.22
2023-07-25T02:34:21.614Z,73.07
2023-07-25T02:36:49.247Z,73.24
2023-07-25T02:39:16.993Z,73.33
2023-07-25T02:41:44.764Z,73.50
2023-07-25T02:44:12.367Z,73.47
2023-07-25T02:46:39.995Z,73.87
2023-07-25T02:49:07.805Z,73.76
2023-07-25T02:51:37.361Z,73.96
2023-07-25T02:54:04.975Z,74.04
2023-07-25T02:56:32.579Z,73.82
2023-07-25T02:59:00.210Z,74.02
2023-07-25T03:01:27.809Z,74.13
2023-07-25T03:03:55.464Z,74.53
2023-07-25T03:06:23.150Z,74.37
2023-07-25T03:08:50.793Z,74.25
2023-07-25T03:11:18.412Z,74.53
2023-07-25T03:13:46.210Z,74.55
2023-07-25T03:16:13.956Z,74.52
2023-07-25T03:18:41.608Z,74.54
2023-07-25T03:21:09.166Z,74.50
2023-07-25T03:23:36.790Z,74.79
2023-07-25T03:26:04.898Z,74.86
2023-07-25T03:28:32.521Z,74.92
2023-07-25T03:31:00.293Z,75.06
2023-07-25T03:33:28.988Z,75.29
2023-07-25T03:35:56.834Z,75.22
2023-07-25T03:38:24.460Z,75.37
2023-07-25T03:40:52.444Z,75.56
2023-07-25T03:43:21.409Z,75.66
2023-07-25T03:45:49.133Z,75.47
2023-07-25T03:48:16.797Z,75.68
2023-07-25T03:50:44.436Z,75.79
2023-07-25T03:53:12.133Z,75.57
2023-07-25T03:55:39.773Z,75.58
2023-07-25T03:58:07.527Z,75.67
2023-07-25T04:00:35.223Z,75.61
2023-07-25T04:03:14.198Z,75.81
2023-07-25T04:05:43.489Z,75.76
2023-07-25T04:08:11.206Z,75.78
2023-07-25T04:10:39.725Z,76.01
2023-07-25T04:13:07.310Z,75.89
2023-07-25T04:15:35.069Z,75.93
2023-07-25T04:18:03.077Z,76.07
2023-07-25T04:20:30.792Z,76.25
2023-07-25T04:22:59.888Z,76.37
2023-07-25T04:25:28.010Z,76.14
2023-07-25T04:27:55.564Z,76.25
2023-07-25T04:30:23.223Z,76.24
2023-07-25T04:32:51.028Z,76.09
2023-07-25T04:35:18.778Z,76.21
2023-07-25T04:37:46.451Z,76.34
2023-07-25T04:40:15.010Z,76.18
2023-07-25T04:42:42.740Z,75.98
2023-07-25T04:45:11.774Z,75.92
2023-07-25T04:47:39.579Z,75.41
2023-07-25T04:50:07.501Z,75.67
2023-07-25T04:52:36.398Z,75.32
2023-07-25T04:55:04.117Z,75.27
2023-07-25T04:57:31.763Z,75.16
2023-07-25T04:59:59.482Z,74.72
2023-07-25T05:02:27.164Z,74.64
2023-07-25T05:04:54.825Z,74.59
2023-07-25T05:07:22.461Z,74.50
2023-07-25T05:09:50.171Z,74.49
2023-07-25T05:12:17.772Z,74.38
2023-07-25T05:14:45.375Z,74.40
2023-07-25T05:17:12.954Z,74.24
2023-07-25T05:19:42.881Z,74.08
2023-07-25T05:22:10.632Z,74.00
2023-07-25T05:24:38.294Z,73.81
2023-07-25T05:27:06.331Z,73.87
2023-07-25T05:29:34.857Z,73.49
2023-07-25T05:32:02.489Z,73.23
2023-07-25T05:34:30.177Z,73.17
2023-07-25T05:36:57.783Z,72.81
2023-07-25T05:39:25.567Z,72.56
2023-07-25T05:41:53.159Z,72.58
2023-07-25T05:44:20.823Z,71.83
2023-07-25T05:46:48.536Z,71.93
2023-07-25T05:49:16.432Z,71.27
2023-07-25T05:51:44.610Z,71.35
2023-07-25T05:54:16.202Z,70.43
2023-07-25T05:56:43.846Z,68.87
2023-07-25T05:59:12.862Z,68.11
2023-07-25T06:01:41.320Z,67.44
2023-07-25T06:04:08.959Z,67.37
2023-07-25T06:06:36.542Z,67.16
2023-07-25T06:09:04.629Z,67.22
2023-07-25T06:11:32.571Z,66.85
2023-07-25T06:14:00.479Z,66.45
2023-07-25T06:16:28.193Z,65.69
2023-07-25T06:18:56.068Z,65.17
2023-07-25T06:21:23.964Z,65.01
2023-07-25T06:23:51.588Z,64.70
2023-07-25T06:26:19.257Z,64.06
2023-07-25T06:28:46.864Z,64.31
2023-07-25T06:31:14.592Z,63.66
2023-07-25T06:33:42.246Z,63.76
2023-07-25T06:36:09.901Z,63.72
2023-07-25T06:38:37.473Z,63.97
2023-07-25T06:41:05.157Z,63.65
2023-07-25T06:43:32.713Z,63.33
2023-07-25T06:46:03.110Z,63.04
2023-07-25T06:48:30.793Z,63.03
2023-07-25T06:50:58.602Z,62.96
2023-07-25T06:53:26.290Z,62.91
2023-07-25T06:55:54.111Z,62.43
2023-07-25T06:58:22.435Z,62.62
2023-07-25T07:00:50.030Z,62.64
2023-07-25T07:03:17.729Z,61.99
2023-07-25T07:05:55.226Z,61.66
2023-07-25T07:08:23.934Z,61.15
2023-07-25T07:10:55.728Z,59.61
2023-07-25T07:13:24.241Z,58.73
2023-07-25T07:15:52.456Z,57.57
2023-07-25T07:18:20.262Z,56.54
2023-07-25T07:20:49.712Z,56.09
2023-07-25T07:23:18.000Z,55.28
2023-07-25T07:25:46.244Z,54.96
2023-07-25T07:28:14.811Z,53.36
2023-07-25T07:30:42.673Z,52.08
2023-07-25T07:33:10.340Z,51.36
2023-07-25T07:35:38.010Z,51.45
2023-07-25T07:38:05.640Z,51.00
2023-07-25T07:40:34.246Z,50.60
2023-07-25T07:43:02.088Z,50.66
2023-07-25T07:45:31.033Z,50.25
2023-07-25T07:47:58.647Z,49.99
2023-07-25T07:50:29.622Z,50.16
2023-07-25T07:52:57.268Z,50.54
2023-07-25T07:55:25.020Z,51.41
2023-07-25T07:57:53.188Z,52.03
2023-07-25T08:00:20.936Z,52.45
2023-07-25T08:02:48.894Z,52.91
2023-07-25T08:05:16.583Z,53.23
2023-07-25T08:07:44.258Z,53.42
2023-07-25T08:10:11.922Z,53.17
2023-07-25T08:12:39.874Z,53.00
2023-07-25T08:15:08.704Z,52.89
2023-07-25T08:17:36.798Z,52.33
2023-07-25T08:20:05.029Z,52.44
2023-07-25T08:22:32.684Z,52.33
2023-07-25T08:25:00.561Z,51.90
2023-07-25T08:27:28.463Z,51.88
2023-07-25T08:29:56.696Z,51.86
2023-07-25T08:32:26.853Z,51.56
2023-07-25T08:34:54.928Z,51.59
2023-07-25T08:37:24.592Z,51.03
2023-07-25T08:39:52.313Z,50.89
2023-07-25T08:42:23.287Z,50.37
2023-07-25T08:44:52.927Z,49.94
2023-07-25T08:47:28.632Z,49.46
2023-07-25T08:49:58.415Z,49.50
2023-07-25T08:52:31.797Z,49.38
2023-07-25T08:54:59.406Z,49.14
2023-07-25T08:57:28.944Z,49.53
2023-07-25T08:59:57.423Z,49.87
2023-07-25T09:02:26.790Z,50.21
2023-07-25T09:04:55.337Z,50.64
2023-07-25T09:07:22.959Z,51.22
2023-07-25T09:09:50.980Z,51.75
2023-07-25T09:12:19.216Z,52.72
2023-07-25T09:14:46.894Z,53.03
2023-07-25T09:17:14.550Z,53.22
2023-07-25T09:19:42.816Z,53.83
2023-07-25T09:22:30.297Z,54.23
2023-07-25T09:24:59.578Z,54.41
2023-07-25T09:27:27.929Z,54.64
2023-07-25T09:29:55.716Z,55.22
2023-07-25T09:32:26.345Z,55.54
2023-07-25T09:35:00.076Z,55.85
2023-07-25T09:37:29.598Z,56.60
2023-07-25T09:39:57.408Z,56.74
2023-07-25T09:42:26.576Z,57.46
2023-07-25T09:44:55.268Z,58.02
2023-07-25T09:47:24.732Z,57.99
2023-07-25T09:49:56.100Z,58.34
2023-07-25T09:52:24.666Z,58.59
2023-07-25T09:54:52.567Z,58.49
2023-07-25T09:57:20.459Z,58.76
2023-07-25T09:59:50.648Z,58.88
2023-07-25T10:02:19.213Z,58.34
2023-07-25T10:04:47.821Z,57.99
2023-07-25T10:07:15.938Z,57.60
2023-07-25T10:09:46.521Z,57.18
2023-07-25T10:12:14.295Z,56.65
2023-07-25T10:14:41.927Z,56.07
2023-07-25T10:17:10.034Z,55.39
2023-07-25T10:19:56.919Z,55.13
2023-07-25T10:22:37.709Z,54.15
2023-07-25T10:25:11.412Z,53.33
2023-07-25T10:27:39.117Z,53.12
2023-07-25T10:30:28.353Z,53.06
2023-07-25T10:33:03.702Z,53.08
2023-07-25T10:35:54.505Z,53.01
2023-07-25T10:38:34.333Z,52.80
2023-07-25T10:41:12.631Z,52.46
2023-07-25T10:43:46.411Z,52.54
2023-07-25T10:46:18.950Z,52.76
2023-07-25T10:48:48.739Z,52.64
2023-07-25T10:51:19.016Z,52.61
2023-07-25T10:54:12.070Z,52.44
2023-07-25T10:56:41.273Z,52.58
2023-07-25T10:59:15.295Z,52.53
2023-07-25T11:01:46.088Z,52.39
2023-07-25T11:04:31.652Z,51.87
2023-07-25T11:07:08.665Z,51.94
2023-07-25T11:09:41.068Z,52.02
2023-07-25T11:12:11.172Z,52.00
2023-07-25T11:14:43.722Z,51.92
2023-07-25T11:17:14.897Z,51.54
2023-07-25T11:19:42.585Z,51.46
2023-07-25T11:22:11.872Z,51.02
2023-07-25T11:24:48.421Z,51.04
2023-07-25T11:27:16.196Z,50.90
2023-07-25T11:29:43.838Z,50.60
2023-07-25T11:32:11.701Z,50.53
2023-07-25T11:34:39.750Z,50.11
2023-07-25T11:37:14.186Z,49.43
2023-07-25T11:39:42.115Z,49.15
2023-07-25T11:42:09.984Z,48.45
2023-07-25T11:44:37.889Z,47.23
2023-07-25T11:47:06.112Z,46.19
2023-07-25T11:52:06.107Z,43.16
2023-07-25T11:54:35.042Z,42.83
2023-07-25T11:57:03.078Z,42.76
2023-07-25T11:59:31.074Z,43.35
2023-07-25T12:02:06.591Z,43.12
2023-07-25T12:04:43.838Z,43.51
2023-07-25T12:07:12.609Z,44.37
2023-07-25T12:09:41.164Z,45.26
2023-07-25T12:12:13.873Z,45.75
2023-07-25T12:14:42.460Z,46.85
2023-07-25T12:17:10.079Z,48.03
2023-07-25T12:19:37.982Z,48.22
2023-07-25T12:22:06.756Z,48.53
2023-07-25T12:24:42.031Z,49.19
2023-07-25T12:27:20.471Z,49.70
2023-07-25T12:29:48.174Z,49.80
2023-07-25T12:32:15.734Z,50.28
2023-07-25T12:34:43.447Z,49.99
2023-07-25T12:37:11.079Z,49.64
2023-07-25T12:39:40.475Z,49.30
2023-07-25T12:42:08.298Z,48.50
2023-07-25T12:44:36.733Z,47.92
2023-07-25T12:47:05.731Z,47.14
2023-07-25T12:49:34.457Z,46.24
2023-07-25T12:52:02.271Z,46.05
2023-07-25T12:54:29.901Z,46.54
2023-07-25T12:56:58.038Z,46.94
2023-07-25T12:59:25.748Z,47.30
2023-07-25T13:01:53.569Z,47.03
2023-07-25T13:04:21.438Z,47.06
2023-07-25T13:06:49.396Z,46.71
2023-07-25T13:09:17.016Z,46.74
2023-07-25T13:11:45.760Z,46.19
2023-07-25T13:14:13.422Z,45.19
2023-07-25T13:16:41.166Z,44.33
2023-07-25T13:19:12.826Z,44.08
2023-07-25T13:21:40.550Z,43.12
2023-07-25T13:24:08.261Z,41.86
2023-07-25T13:26:35.943Z,40.93
2023-07-25T13:29:04.920Z,39.97
2023-07-25T13:31:32.971Z,40.45
2023-07-25T13:34:00.796Z,40.60
2023-07-25T13:36:28.441Z,41.12
2023-07-25T13:38:56.071Z,41.05
2023-07-25T13:41:23.895Z,40.60
2023-07-25T13:43:51.551Z,41.03
2023-07-25T13:46:19.263Z,41.35
2023-07-25T13:48:48.746Z,41.39
2023-07-25T13:51:16.435Z,41.27
2023-07-25T13:53:44.024Z,41.50
2023-07-25T13:56:12.230Z,40.88
2023-07-25T13:58:39.856Z,40.65
2023-07-25T14:01:07.530Z,40.82
2023-07-25T14:03:35.228Z,40.94
2023-07-25T14:06:02.946Z,40.97
2023-07-25T14:08:30.824Z,41.08
2023-07-25T14:10:58.517Z,41.21
2023-07-25T14:13:27.265Z,41.50
2023-07-25T14:15:56.013Z,41.77
2023-07-25T14:18:24.493Z,41.13
2023-07-25T14:20:53.845Z,40.38
2023-07-25T14:23:23.229Z,40.40
2023-07-25T14:25:50.837Z,39.69
2023-07-25T14:28:18.473Z,39.56
2023-07-25T14:30:46.488Z,39.46
2023-07-25T14:33:16.058Z,39.71
2023-07-25T14:35:43.952Z,40.08
2023-07-25T14:38:14.013Z,40.11
2023-07-25T14:40:42.400Z,40.01
2023-07-25T14:43:09.972Z,40.38
2023-07-25T14:45:37.608Z,40.60
2023-07-25T14:48:05.905Z,40.12
2023-07-25T14:50:33.887Z,40.28
2023-07-25T14:53:01.761Z,40.37
2023-07-25T14:55:29.581Z,39.69
2023-07-25T14:57:57.193Z,39.64
2023-07-25T15:00:24.893Z,39.80
2023-07-25T15:02:52.644Z,39.76
2023-07-25T15:05:20.366Z,40.32
2023-07-25T15:07:48.023Z,40.24
2023-07-25T15:10:15.993Z,40.13
2023-07-25T15:12:43.712Z,40.27
2023-07-25T15:15:11.726Z,40.40
2023-07-25T15:17:39.458Z,40.35
2023-07-25T15:20:11.687Z,40.19
2023-07-25T15:22:39.734Z,40.55
2023-07-25T15:25:07.844Z,40.79
2023-07-25T15:27:35.636Z,40.90
2023-07-25T15:30:04.245Z,40.80
2023-07-25T15:32:33.002Z,40.39
2023-07-25T15:35:01.409Z,40.60
2023-07-25T15:37:29.267Z,40.72
2023-07-25T15:39:56.843Z,40.82
2023-07-25T15:42:24.538Z,41.02
2023-07-25T15:44:52.082Z,41.27
2023-07-25T15:47:19.681Z,41.50
2023-07-25T15:49:47.625Z,41.93
2023-07-25T15:52:15.324Z,42.13
2023-07-25T15:54:42.949Z,42.27
2023-07-25T15:57:10.622Z,42.39
2023-07-25T15:59:38.246Z,42.52
2023-07-25T16:02:05.965Z,42.74
2023-07-25T16:04:33.600Z,43.18
2023-07-25T16:07:01.315Z,43.55
2023-07-25T16:09:33.441Z,43.90
2023-07-25T16:12:02.358Z,43.45
2023-07-25T16:14:30.047Z,43.32
2023-07-25T16:16:57.789Z,43.32
2023-07-25T16:19:27.869Z,43.39
2023-07-25T16:21:55.525Z,42.89
2023-07-25T16:24:23.200Z,42.45
2023-07-25T16:26:51.186Z,42.20
2023-07-25T16:29:18.934Z,42.28
2023-07-25T16:31:49.104Z,42.54
2023-07-25T16:34:18.685Z,42.96
2023-07-25T16:36:46.388Z,43.07
2023-07-25T16:39:14.050Z,43.18
2023-07-25T16:41:41.696Z,43.13
2023-07-25T16:44:09.848Z,43.39
2023-07-25T16:46:37.639Z,43.42
2023-07-25T16:49:05.365Z,43.38
2023-07-25T16:51:33.180Z,43.56
2023-07-25T16:54:01.106Z,43.65
2023-07-25T16:56:28.713Z,43.78
2023-07-25T16:58:56.504Z,43.58
2023-07-25T17:01:24.460Z,43.60
2023-07-25T17:03:52.332Z,43.75
2023-07-25T17:06:19.998Z,44.07
2023-07-25T17:08:47.682Z,44.13
2023-07-25T17:11:16.649Z,44.34
2023-07-25T17:13:44.362Z,44.14
2023-07-25T17:16:12.087Z,43.99
2023-07-25T17:18:39.958Z,44.08
2023-07-25T17:21:07.649Z,44.51
2023-07-25T17:23:35.341Z,44.54
2023-07-25T17:26:03.323Z,44.97
2023-07-25T17:28:31.042Z,45.39
2023-07-25T17:30:58.922Z,45.92
2023-07-25T17:33:26.882Z,46.94
2023-07-25T17:35:54.599Z,47.70
2023-07-25T17:38:22.437Z,48.21
2023-07-25T17:40:50.311Z,48.96
2023-07-25T17:43:17.972Z,49.51
2023-07-25T17:45:45.718Z,50.13
2023-07-25T18:28:54.224Z,53.78
2023-07-25T18:31:22.031Z,53.94
2023-07-25T18:33:49.710Z,54.03
2023-07-25T18:36:17.377Z,54.31
2023-07-25T18:38:45.103Z,54.46
2023-07-25T18:41:12.958Z,54.54
2023-07-25T18:43:40.580Z,54.61
2023-07-25T18:46:08.301Z,54.80
2023-07-25T18:48:35.987Z,54.83
2023-07-25T18:51:03.762Z,54.87
2023-07-25T18:53:31.493Z,54.79
2023-07-25T18:55:59.108Z,54.83
2023-07-25T18:58:28.413Z,55.03
2023-07-25T19:00:56.118Z,55.07
2023-07-25T19:03:24.000Z,55.19
2023-07-25T19:05:53.567Z,55.33
2023-07-25T19:08:21.308Z,55.40
2023-07-25T19:10:48.943Z,55.69
2023-07-25T19:13:16.640Z,55.94
2023-07-25T19:15:44.800Z,56.07
2023-07-25T19:18:12.498Z,56.43
2023-07-25T19:20:40.501Z,56.96
2023-07-25T19:23:24.801Z,57.18
2023-07-25T19:26:00.563Z,57.83
2023-07-25T19:28:29.603Z,58.32
2023-07-25T19:30:58.778Z,58.82
2023-07-25T19:33:29.052Z,59.37
2023-07-25T19:35:59.245Z,60.55
2023-07-25T19:38:28.294Z,61.32
2023-07-25T19:40:56.459Z,61.61
2023-07-25T19:43:24.552Z,62.06
2023-07-25T19:45:56.898Z,62.97
2023-07-25T19:48:24.576Z,63.21
2023-07-25T19:50:52.249Z,63.22
2023-07-25T19:53:19.923Z,64.03
2023-07-25T19:55:56.539Z,64.77
2023-07-25T19:58:24.283Z,65.06
2023-07-25T20:00:51.875Z,65.35
2023-07-25T20:03:19.770Z,65.84
2023-07-25T20:05:47.595Z,66.28
2023-07-25T20:08:15.707Z,66.56
2023-07-25T20:10:44.313Z,67.41
2023-07-25T20:13:12.333Z,67.68
2023-07-25T20:15:40.016Z,68.10
2023-07-25T20:18:07.793Z,68.35
2023-07-25T20:20:35.540Z,69.20
2023-07-25T20:23:03.289Z,69.51
2023-07-25T20:25:30.965Z,69.73
2023-07-25T20:27:58.695Z,69.71
2023-07-25T20:30:26.702Z,70.25
2023-07-25T20:32:54.443Z,70.37
2023-07-25T20:35:22.186Z,70.64
2023-07-25T20:37:49.865Z,71.62
2023-07-25T20:40:18.330Z,71.36
2023-07-25T20:42:45.962Z,71.75
2023-07-25T20:45:15.653Z,72.07
2023-07-25T20:47:43.732Z,72.65
2023-07-25T20:50:11.408Z,72.74
2023-07-25T20:52:39.046Z,72.90
2023-07-25T20:55:08.073Z,73.08
2023-07-25T20:57:35.812Z,73.22
2023-07-25T21:00:03.793Z,73.76
2023-07-25T21:02:31.713Z,74.24
2023-07-25T21:04:59.458Z,74.59
2023-07-25T21:07:27.580Z,75.07
2023-07-25T21:09:55.412Z,74.92
2023-07-25T21:12:23.132Z,75.50
2023-07-25T21:14:51.032Z,75.82
2023-07-25T21:17:18.747Z,75.42
2023-07-25T21:19:46.405Z,75.82
2023-07-25T21:22:14.263Z,75.68
2023-07-25T21:24:42.056Z,76.01
2023-07-25T21:27:09.785Z,76.48
2023-07-25T21:29:37.439Z,76.40
2023-07-25T21:32:05.606Z,76.97
2023-07-25T21:34:33.324Z,76.93
2023-07-25T21:37:00.967Z,77.33
2023-07-25T21:39:28.537Z,77.74
2023-07-25T21:41:56.220Z,77.70
2023-07-25T21:44:23.853Z,77.40
2023-07-25T21:46:51.562Z,77.80
2023-07-25T21:49:19.355Z,77.90
2023-07-25T21:51:47.002Z,77.80
2023-07-25T21:54:14.687Z,77.71
2023-07-25T21:56:42.778Z,78.38
2023-07-25T21:59:10.477Z,78.06
2023-07-25T22:01:39.269Z,78.79
2023-07-25T22:04:09.098Z,78.21
2023-07-25T22:06:36.760Z,78.71
2023-07-25T22:09:05.172Z,79.14
2023-07-25T22:11:32.870Z,78.91
2023-07-25T22:14:00.611Z,78.57
2023-07-25T22:16:28.457Z,78.98
2023-07-25T22:18:56.158Z,78.78
2023-07-25T22:21:23.824Z,79.08
2023-07-25T22:23:51.452Z,79.45
2023-07-25T22:26:19.158Z,79.37
2023-07-25T22:28:46.833Z,79.46
2023-07-25T22:31:14.958Z,80.12
2023-07-25T22:33:42.603Z,79.67
2023-07-25T22:36:10.267Z,79.76
2023-07-25T22:38:38.232Z,80.02
2023-07-25T22:41:05.992Z,79.97
2023-07-25T22:43:33.654Z,80.45
2023-07-25T22:46:01.363Z,79.93
2023-07-25T22:48:29.135Z,80.25
2023-07-25T22:50:56.805Z,80.06
2023-07-25T22:53:24.521Z,80.29
2023-07-25T22:55:52.249Z,80.12
2023-07-25T22:58:19.858Z,80.50
2023-07-25T23:00:47.843Z,80.45
2023-07-25T23:03:16.001Z,80.62
2023-07-25T23:05:43.782Z,80.36
2023-07-25T23:08:11.573Z,80.75
2023-07-25T23:10:39.279Z,80.86
2023-07-25T23:13:07.049Z,80.98
2023-07-25T23:15:34.740Z,81.26
2023-07-25T23:18:02.591Z,80.86
2023-07-25T23:20:30.931Z,81.51
2023-07-25T23:22:58.885Z,81.00
2023-07-25T23:25:26.532Z,81.39
2023-07-25T23:27:54.112Z,81.67
2023-07-25T23:30:21.739Z,81.59
2023-07-25T23:32:49.415Z,81.98
2023-07-25T23:35:17.172Z,82.05
2023-07-25T23:37:45.171Z,81.89
2023-07-25T23:40:13.334Z,82.26
2023-07-25T23:42:40.973Z,82.19
2023-07-25T23:45:09.008Z,82.45
2023-07-25T23:47:36.757Z,82.61
2023-07-25T23:50:06.445Z,82.73
2023-07-25T23:52:35.314Z,82.72
2023-07-25T23:55:04.080Z,82.54
2023-07-25T23:57:31.799Z,82.86
2023-07-25T23:59:59.391Z,82.98
